sensor_id;sensor_type;location;lat;lon;timestamp;P1;durP1;ratioP1;P2;durP2;ratioP2
56631;SDS011;42503;39.928;-75.152;2023-05-07T00:01:18;9.98;;;1.83;;
56631;SDS011;42503;39.928;-75.152;2023-05-07T00:11:20;4.80;;;1.42;;
56631;SDS011;42503;39.928;-75.152;2023-05-07T00:21:21;2.28;;;1.23;;
56631;SDS011;42503;39.928;-75.152;2023-05-07T00:31:22;4.22;;;1.52;;
56631;SDS011;42503;39.928;-75.152;2023-05-07T00:41:24;6.80;;;1.75;;
56631;SDS011;42503;39.928;-75.152;2023-05-07T00:51:25;2.00;;;1.10;;
56631;SDS011;42503;39.928;-75.152;2023-05-07T01:01:28;5.82;;;1.20;;
56631;SDS011;42503;39.928;-75.152;2023-05-07T01:11:32;6.65;;;1.20;;
56631;SDS011;42503;39.928;-75.152;2023-05-07T01:21:33;2.22;;;0.90;;
56631;SDS011;42503;39.928;-75.152;2023-05-07T01:31:38;4.57;;;1.25;;
56631;SDS011;42503;39.928;-75.152;2023-05-07T01:41:42;7.05;;;1.65;;
56631;SDS011;42503;39.928;-75.152;2023-05-07T01:51:44;3.20;;;1.58;;
56631;SDS011;42503;39.928;-75.152;2023-05-07T02:01:46;6.53;;;1.45;;
56631;SDS011;42503;39.928;-75.152;2023-05-07T02:11:48;8.93;;;1.50;;
56631;SDS011;42503;39.928;-75.152;2023-05-07T02:21:50;4.60;;;1.50;;
56631;SDS011;42503;39.928;-75.152;2023-05-07T02:31:51;6.60;;;1.50;;
56631;SDS011;42503;39.928;-75.152;2023-05-07T02:41:56;6.65;;;1.65;;
56631;SDS011;42503;39.928;-75.152;2023-05-07T02:52:00;6.32;;;1.48;;
56631;SDS011;42503;39.928;-75.152;2023-05-07T03:02:01;13.32;;;1.70;;
56631;SDS011;42503;39.928;-75.152;2023-05-07T03:12:03;9.10;;;1.92;;
56631;SDS011;42503;39.928;-75.152;2023-05-07T03:22:04;19.42;;;2.50;;
56631;SDS011;42503;39.928;-75.152;2023-05-07T03:32:05;12.40;;;2.45;;
56631;SDS011;42503;39.928;-75.152;2023-05-07T03:42:10;16.98;;;2.92;;
56631;SDS011;42503;39.928;-75.152;2023-05-07T03:52:11;11.07;;;2.33;;
56631;SDS011;42503;39.928;-75.152;2023-05-07T04:02:13;8.98;;;2.20;;
56631;SDS011;42503;39.928;-75.152;2023-05-07T04:12:14;9.88;;;1.73;;
56631;SDS011;42503;39.928;-75.152;2023-05-07T04:22:18;3.55;;;1.33;;
56631;SDS011;42503;39.928;-75.152;2023-05-07T04:32:23;5.47;;;1.50;;
56631;SDS011;42503;39.928;-75.152;2023-05-07T04:42:25;8.40;;;2.38;;
56631;SDS011;42503;39.928;-75.152;2023-05-07T04:52:27;4.32;;;1.60;;
56631;SDS011;42503;39.928;-75.152;2023-05-07T05:02:28;4.65;;;1.40;;
56631;SDS011;42503;39.928;-75.152;2023-05-07T05:12:32;6.10;;;1.73;;
56631;SDS011;42503;39.928;-75.152;2023-05-07T05:22:40;6.60;;;2.25;;
56631;SDS011;42503;39.928;-75.152;2023-05-07T05:32:42;3.00;;;1.55;;
56631;SDS011;42503;39.928;-75.152;2023-05-07T05:42:46;3.20;;;1.27;;
56631;SDS011;42503;39.928;-75.152;2023-05-07T05:52:48;5.32;;;1.85;;
56631;SDS011;42503;39.928;-75.152;2023-05-07T06:02:49;4.03;;;1.30;;
56631;SDS011;42503;39.928;-75.152;2023-05-07T06:12:50;2.30;;;1.20;;
56631;SDS011;42503;39.928;-75.152;2023-05-07T06:22:52;3.45;;;1.10;;
56631;SDS011;42503;39.928;-75.152;2023-05-07T06:32:53;3.60;;;1.40;;
56631;SDS011;42503;39.928;-75.152;2023-05-07T06:42:54;4.45;;;1.20;;
56631;SDS011;42503;39.928;-75.152;2023-05-07T06:52:56;2.20;;;1.27;;
56631;SDS011;42503;39.928;-75.152;2023-05-07T07:02:58;2.67;;;1.10;;
56631;SDS011;42503;39.928;-75.152;2023-05-07T07:13:04;3.92;;;1.45;;
56631;SDS011;42503;39.928;-75.152;2023-05-07T07:23:06;2.30;;;1.10;;
56631;SDS011;42503;39.928;-75.152;2023-05-07T07:33:07;4.63;;;1.50;;
56631;SDS011;42503;39.928;-75.152;2023-05-07T07:43:09;2.17;;;1.67;;
56631;SDS011;42503;39.928;-75.152;2023-05-07T07:53:10;2.05;;;1.15;;
56631;SDS011;42503;39.928;-75.152;2023-05-07T08:03:11;2.53;;;1.17;;
56631;SDS011;42503;39.928;-75.152;2023-05-07T08:13:13;3.65;;;1.38;;
56631;SDS011;42503;39.928;-75.152;2023-05-07T08:23:14;4.85;;;1.75;;
56631;SDS011;42503;39.928;-75.152;2023-05-07T08:33:16;3.20;;;1.15;;
56631;SDS011;42503;39.928;-75.152;2023-05-07T08:43:17;1.60;;;1.17;;
56631;SDS011;42503;39.928;-75.152;2023-05-07T08:53:20;3.25;;;1.65;;
56631;SDS011;42503;39.928;-75.152;2023-05-07T09:03:21;2.75;;;1.52;;
56631;SDS011;42503;39.928;-75.152;2023-05-07T09:13:23;2.50;;;1.40;;
56631;SDS011;42503;39.928;-75.152;2023-05-07T09:23:24;2.90;;;1.27;;
56631;SDS011;42503;39.928;-75.152;2023-05-07T09:33:26;1.67;;;1.23;;
56631;SDS011;42503;39.928;-75.152;2023-05-07T09:43:32;1.48;;;1.30;;
56631;SDS011;42503;39.928;-75.152;2023-05-07T09:53:37;2.17;;;1.60;;
56631;SDS011;42503;39.928;-75.152;2023-05-07T10:03:40;2.13;;;1.40;;
56631;SDS011;42503;39.928;-75.152;2023-05-07T10:13:45;1.88;;;1.40;;
56631;SDS011;42503;39.928;-75.152;2023-05-07T10:23:50;1.58;;;1.38;;
56631;SDS011;42503;39.928;-75.152;2023-05-07T10:34:06;2.10;;;1.60;;
56631;SDS011;42503;39.928;-75.152;2023-05-07T10:44:11;1.40;;;1.30;;
56631;SDS011;42503;39.928;-75.152;2023-05-07T10:54:30;1.83;;;1.40;;
56631;SDS011;42503;39.928;-75.152;2023-05-07T11:04:31;1.45;;;1.30;;
56631;SDS011;42503;39.928;-75.152;2023-05-07T11:24:45;1.90;;;1.65;;
56631;SDS011;42503;39.928;-75.152;2023-05-07T11:34:53;2.55;;;1.50;;
56631;SDS011;42503;39.928;-75.152;2023-05-07T11:44:55;1.85;;;1.52;;
56631;SDS011;42503;39.928;-75.152;2023-05-07T11:54:58;1.40;;;1.30;;
56631;SDS011;42503;39.928;-75.152;2023-05-07T12:05:00;3.47;;;1.85;;
56631;SDS011;42503;39.928;-75.152;2023-05-07T12:15:04;1.40;;;1.30;;
56631;SDS011;42503;39.928;-75.152;2023-05-07T12:25:06;7.55;;;1.95;;
56631;SDS011;42503;39.928;-75.152;2023-05-07T12:35:08;8.85;;;2.08;;
56631;SDS011;42503;39.928;-75.152;2023-05-07T12:45:15;9.98;;;2.22;;
56631;SDS011;42503;39.928;-75.152;2023-05-07T12:55:17;5.97;;;2.05;;
56631;SDS011;42503;39.928;-75.152;2023-05-07T13:05:21;8.77;;;2.17;;
56631;SDS011;42503;39.928;-75.152;2023-05-07T13:15:22;8.85;;;2.22;;
56631;SDS011;42503;39.928;-75.152;2023-05-07T13:25:23;9.40;;;2.15;;
56631;SDS011;42503;39.928;-75.152;2023-05-07T13:35:28;3.17;;;1.95;;
56631;SDS011;42503;39.928;-75.152;2023-05-07T13:45:29;4.13;;;1.90;;
56631;SDS011;42503;39.928;-75.152;2023-05-07T13:55:31;8.35;;;1.80;;
56631;SDS011;42503;39.928;-75.152;2023-05-07T14:05:41;7.53;;;2.08;;
56631;SDS011;42503;39.928;-75.152;2023-05-07T14:15:52;6.78;;;2.00;;
56631;SDS011;42503;39.928;-75.152;2023-05-07T14:25:53;5.57;;;2.05;;
56631;SDS011;42503;39.928;-75.152;2023-05-07T14:35:55;8.18;;;1.70;;
56631;SDS011;42503;39.928;-75.152;2023-05-07T14:45:56;3.55;;;1.80;;
56631;SDS011;42503;39.928;-75.152;2023-05-07T14:55:57;5.03;;;1.70;;
56631;SDS011;42503;39.928;-75.152;2023-05-07T15:06:01;2.33;;;1.77;;
56631;SDS011;42503;39.928;-75.152;2023-05-07T15:16:05;3.13;;;1.60;;
56631;SDS011;42503;39.928;-75.152;2023-05-07T15:26:07;5.50;;;1.80;;
56631;SDS011;42503;39.928;-75.152;2023-05-07T15:36:08;5.32;;;1.40;;
56631;SDS011;42503;39.928;-75.152;2023-05-07T15:46:10;2.75;;;1.75;;
56631;SDS011;42503;39.928;-75.152;2023-05-07T15:56:11;4.72;;;1.50;;
56631;SDS011;42503;39.928;-75.152;2023-05-07T16:06:13;3.65;;;1.70;;
56631;SDS011;42503;39.928;-75.152;2023-05-07T16:16:14;3.47;;;1.35;;
56631;SDS011;42503;39.928;-75.152;2023-05-07T16:26:16;3.00;;;1.52;;
56631;SDS011;42503;39.928;-75.152;2023-05-07T16:36:17;4.10;;;1.67;;
56631;SDS011;42503;39.928;-75.152;2023-05-07T16:46:19;1.55;;;1.45;;
56631;SDS011;42503;39.928;-75.152;2023-05-07T16:56:23;4.60;;;1.50;;
56631;SDS011;42503;39.928;-75.152;2023-05-07T17:06:25;2.65;;;1.73;;
56631;SDS011;42503;39.928;-75.152;2023-05-07T17:16:27;2.10;;;1.45;;
56631;SDS011;42503;39.928;-75.152;2023-05-07T17:26:28;2.60;;;1.30;;
56631;SDS011;42503;39.928;-75.152;2023-05-07T17:36:31;1.77;;;1.63;;
56631;SDS011;42503;39.928;-75.152;2023-05-07T17:46:32;5.72;;;1.80;;
56631;SDS011;42503;39.928;-75.152;2023-05-07T17:56:36;2.72;;;1.60;;
56631;SDS011;42503;39.928;-75.152;2023-05-07T18:06:43;1.65;;;1.30;;
56631;SDS011;42503;39.928;-75.152;2023-05-07T18:16:44;2.45;;;1.30;;
56631;SDS011;42503;39.928;-75.152;2023-05-07T18:26:46;1.35;;;1.23;;
56631;SDS011;42503;39.928;-75.152;2023-05-07T18:36:48;3.05;;;1.83;;
56631;SDS011;42503;39.928;-75.152;2023-05-07T18:46:50;1.40;;;1.30;;
56631;SDS011;42503;39.928;-75.152;2023-05-07T18:56:51;2.33;;;1.55;;
56631;SDS011;42503;39.928;-75.152;2023-05-07T19:06:53;1.35;;;1.25;;
56631;SDS011;42503;39.928;-75.152;2023-05-07T19:17:00;2.08;;;1.60;;
56631;SDS011;42503;39.928;-75.152;2023-05-07T19:27:01;1.30;;;1.10;;
56631;SDS011;42503;39.928;-75.152;2023-05-07T19:37:12;1.50;;;1.40;;
56631;SDS011;42503;39.928;-75.152;2023-05-07T19:47:16;1.88;;;1.50;;
56631;SDS011;42503;39.928;-75.152;2023-05-07T19:57:17;1.50;;;1.40;;
56631;SDS011;42503;39.928;-75.152;2023-05-07T20:07:18;1.48;;;1.38;;
56631;SDS011;42503;39.928;-75.152;2023-05-07T20:17:25;1.60;;;1.50;;
56631;SDS011;42503;39.928;-75.152;2023-05-07T20:27:27;1.98;;;1.60;;
56631;SDS011;42503;39.928;-75.152;2023-05-07T20:37:28;1.02;;;1.02;;
56631;SDS011;42503;39.928;-75.152;2023-05-07T20:47:31;1.30;;;1.20;;
56631;SDS011;42503;39.928;-75.152;2023-05-07T20:57:33;1.88;;;1.30;;
56631;SDS011;42503;39.928;-75.152;2023-05-07T21:07:34;1.00;;;1.00;;
56631;SDS011;42503;39.928;-75.152;2023-05-07T21:17:36;1.50;;;1.40;;
56631;SDS011;42503;39.928;-75.152;2023-05-07T21:27:37;1.85;;;1.50;;
56631;SDS011;42503;39.928;-75.152;2023-05-07T21:37:41;1.55;;;1.30;;
56631;SDS011;42503;39.928;-75.152;2023-05-07T21:47:42;1.60;;;1.38;;
56631;SDS011;42503;39.928;-75.152;2023-05-07T21:57:44;4.97;;;1.58;;
56631;SDS011;42503;39.928;-75.152;2023-05-07T22:07:45;5.13;;;1.45;;
56631;SDS011;42503;39.928;-75.152;2023-05-07T22:17:49;2.42;;;1.75;;
56631;SDS011;42503;39.928;-75.152;2023-05-07T22:27:53;4.40;;;1.80;;
56631;SDS011;42503;39.928;-75.152;2023-05-07T22:37:54;4.00;;;1.60;;
56631;SDS011;42503;39.928;-75.152;2023-05-07T22:47:56;4.93;;;1.70;;
56631;SDS011;42503;39.928;-75.152;2023-05-07T22:58:00;4.03;;;1.90;;
56631;SDS011;42503;39.928;-75.152;2023-05-07T23:08:02;8.85;;;2.05;;
56631;SDS011;42503;39.928;-75.152;2023-05-07T23:18:04;4.07;;;1.75;;
56631;SDS011;42503;39.928;-75.152;2023-05-07T23:28:07;2.65;;;1.70;;
56631;SDS011;42503;39.928;-75.152;2023-05-07T23:38:09;3.53;;;1.65;;
56631;SDS011;42503;39.928;-75.152;2023-05-07T23:48:13;4.15;;;1.77;;
56631;SDS011;42503;39.928;-75.152;2023-05-07T23:58:14;3.38;;;1.60;;
